Time;durP1;ratioP1;P1;durP2;ratioP2;P2;SDS_P1;SDS_P2;PMS_P1;PMS_P2;Temp;Humidity;BMP_temperature;BMP_pressure;BME280_temperature;BME280_humidity;BME280_pressure;Samples;Min_cycle;Max_cycle;Signal;HPM_P1;HPM_P2
2022/07/21 00:01:16;;;;;;;29.05;17.38;;;;;;;;;;5075594;28;20049;-63
2022/07/21 00:03:44;;;;;;;32.55;16.42;;;;;;;;;;5067342;28;20055;-63
2022/07/21 00:06:11;;;;;;;28.48;16.02;;;;;;;;;;5033343;28;20048;-63
2022/07/21 00:08:39;;;;;;;26.30;16.88;;;;;;;;;;5040295;28;20049;-63
2022/07/21 00:11:07;;;;;;;23.55;16.10;;;;;;;;;;5034244;28;20060;-63
2022/07/21 00:13:34;;;;;;;28.83;16.27;;;;;;;;;;5035978;28;20041;-63
2022/07/21 00:16:01;;;;;;;25.55;16.83;;;;;;;;;;5033447;28;20440;-63
2022/07/21 00:18:28;;;;;;;25.98;16.27;;;;;;;;;;5030889;28;20100;-63
2022/07/21 00:20:56;;;;;;;30.40;17.30;;;;;;;;;;5036683;28;20089;-63
2022/07/21 00:23:24;;;;;;;27.08;16.58;;;;;;;;;;5028349;28;20045;-63
2022/07/21 00:25:52;;;;;;;23.58;16.35;;;;;;;;;;5029663;28;20057;-63
2022/07/21 00:28:20;;;;;;;23.58;17.65;;;;;;;;;;5034688;28;20057;-63
2022/07/21 00:30:47;;;;;;;26.02;16.92;;;;;;;;;;5031404;28;20059;-63
2022/07/21 00:33:15;;;;;;;29.45;17.60;;;;;;;;;;5040162;28;20058;-62
2022/07/21 00:35:42;;;;;;;35.42;19.98;;;;;;;;;;5036322;28;20052;-62
2022/07/21 00:38:09;;;;;;;27.30;18.67;;;;;;;;;;5040007;28;20114;-63
2022/07/21 00:40:36;;;;;;;31.80;20.10;;;;;;;;;;5042486;28;20107;-63
2022/07/21 00:43:05;;;;;;;26.52;19.33;;;;;;;;;;5039388;28;20037;-63
2022/07/21 00:45:32;;;;;;;30.23;20.75;;;;;;;;;;5037816;28;20052;-63
2022/07/21 00:47:59;;;;;;;33.80;23.05;;;;;;;;;;5038976;28;20048;-63
2022/07/21 00:50:26;;;;;;;27.40;20.63;;;;;;;;;;5041364;28;20056;-63
2022/07/21 00:52:53;;;;;;;37.35;22.20;;;;;;;;;;5038500;28;20049;-62
2022/07/21 00:55:22;;;;;;;33.58;23.88;;;;;;;;;;5039562;28;20543;-63
2022/07/21 00:57:50;;;;;;;43.95;26.83;;;;;;;;;;5039618;28;20609;-63
2022/07/21 01:00:20;;;;;;;50.67;29.15;;;;;;;;;;5041191;28;20057;-62
2022/07/21 01:02:47;;;;;;;48.50;32.78;;;;;;;;;;5038977;28;20053;-62
2022/07/21 01:05:15;;;;;;;38.70;26.27;;;;;;;;;;5069308;28;20093;-62
2022/07/21 01:07:43;;;;;;;45.92;30.35;;;;;;;;;;5072661;28;20056;-63
2022/07/21 01:10:11;;;;;;;34.67;25.05;;;;;;;;;;5060469;28;20052;-63
2022/07/21 01:12:38;;;;;;;37.95;26.60;;;;;;;;;;5075954;28;20056;-63
2022/07/21 01:15:06;;;;;;;48.35;31.67;;;;;;;;;;5074680;28;20057;-63
2022/07/21 01:17:35;;;;;;;32.70;25.48;;;;;;;;;;5059217;28;20121;-62
2022/07/21 01:20:04;;;;;;;40.95;27.30;;;;;;;;;;5073659;28;20102;-62
2022/07/21 01:22:33;;;;;;;49.78;29.38;;;;;;;;;;5082516;28;20044;-63
2022/07/21 01:25:00;;;;;;;31.48;22.02;;;;;;;;;;5064141;28;20719;-63
2022/07/21 01:27:27;;;;;;;34.88;22.00;;;;;;;;;;5083496;28;20052;-63
2022/07/21 01:29:55;;;;;;;30.75;21.70;;;;;;;;;;5073706;28;20064;-63
2022/07/21 01:32:23;;;;;;;33.88;23.55;;;;;;;;;;5074102;28;20098;-63
2022/07/21 01:34:50;;;;;;;33.17;22.73;;;;;;;;;;5074372;28;20052;-63
2022/07/21 01:37:22;;;;;;;36.50;23.85;;;;;;;;;;5078876;28;20531;-63
2022/07/21 01:42:35;;;;;;;52.78;28.98;;;;;;;;;;5070283;28;20044;-63
2022/07/21 01:45:02;;;;;;;36.30;25.33;;;;;;;;;;5080744;28;20075;-63
2022/07/21 01:47:29;;;;;;;40.65;27.33;;;;;;;;;;5077922;28;20503;-63
2022/07/21 01:49:57;;;;;;;39.55;26.35;;;;;;;;;;5076167;28;20058;-63
2022/07/21 01:52:24;;;;;;;51.10;29.40;;;;;;;;;;5076953;28;20052;-63
2022/07/21 01:54:52;;;;;;;36.83;24.10;;;;;;;;;;5080384;28;20044;-63
2022/07/21 01:57:19;;;;;;;41.65;26.42;;;;;;;;;;5072365;28;20094;-63
2022/07/21 01:59:47;;;;;;;30.50;21.98;;;;;;;;;;5082070;28;20109;-63
2022/07/21 02:02:14;;;;;;;41.58;26.15;;;;;;;;;;5081549;28;20049;-63
2022/07/21 02:04:41;;;;;;;41.63;28.83;;;;;;;;;;5077799;28;20056;-62
2022/07/21 02:07:08;;;;;;;31.02;22.48;;;;;;;;;;5083913;28;20079;-62
2022/07/21 02:09:36;;;;;;;48.97;28.98;;;;;;;;;;5064121;28;20059;-62
2022/07/21 02:12:05;;;;;;;38.67;25.67;;;;;;;;;;5055308;28;20471;-63
2022/07/21 02:14:32;;;;;;;50.17;29.90;;;;;;;;;;5074846;28;20057;-63
2022/07/21 02:16:59;;;;;;;41.97;26.88;;;;;;;;;;5077739;28;20124;-62
2022/07/21 02:19:26;;;;;;;42.55;24.40;;;;;;;;;;5064513;28;20047;-63
2022/07/21 02:21:53;;;;;;;33.78;22.33;;;;;;;;;;5074662;28;20848;-63
2022/07/21 02:24:21;;;;;;;35.08;24.83;;;;;;;;;;5079434;28;20048;-63
2022/07/21 02:26:48;;;;;;;31.80;21.98;;;;;;;;;;5080180;28;20052;-63
2022/07/21 02:29:16;;;;;;;62.67;31.88;;;;;;;;;;5078432;28;20546;-63
2022/07/21 02:31:43;;;;;;;60.25;31.20;;;;;;;;;;5078440;28;20048;-63
2022/07/21 02:34:11;;;;;;;33.80;24.38;;;;;;;;;;5060750;28;20052;-63
2022/07/21 02:36:38;;;;;;;44.83;28.52;;;;;;;;;;5073244;28;20485;-63
2022/07/21 02:39:05;;;;;;;39.70;26.60;;;;;;;;;;5071502;28;20048;-63
2022/07/21 02:41:32;;;;;;;59.50;33.97;;;;;;;;;;5076487;28;20044;-63
2022/07/21 02:43:59;;;;;;;56.25;33.85;;;;;;;;;;5075685;28;20036;-63
2022/07/21 02:46:28;;;;;;;42.90;27.83;;;;;;;;;;5080200;28;20810;-63
2022/07/21 02:48:55;;;;;;;43.72;26.92;;;;;;;;;;5059670;28;20056;-63
2022/07/21 02:51:22;;;;;;;53.58;32.05;;;;;;;;;;5074954;28;20059;-63
2022/07/21 02:53:50;;;;;;;44.72;28.77;;;;;;;;;;5078945;28;20051;-63
2022/07/21 02:56:18;;;;;;;52.00;33.17;;;;;;;;;;5081400;28;20055;-63
2022/07/21 02:58:45;;;;;;;45.90;28.17;;;;;;;;;;5080550;28;20109;-62
2022/07/21 03:01:12;;;;;;;37.42;26.50;;;;;;;;;;5074517;28;20060;-62
2022/07/21 03:03:41;;;;;;;64.00;34.92;;;;;;;;;;5075616;28;20091;-62
2022/07/21 03:06:08;;;;;;;39.63;27.50;;;;;;;;;;5070727;28;20060;-61
2022/07/21 03:08:36;;;;;;;46.63;28.40;;;;;;;;;;5080613;28;20562;-61
2022/07/21 03:11:03;;;;;;;43.00;28.60;;;;;;;;;;5082828;28;20048;-60
2022/07/21 03:13:31;;;;;;;43.47;27.85;;;;;;;;;;5071929;28;20117;-60
2022/07/21 03:15:58;;;;;;;44.05;29.13;;;;;;;;;;5077399;28;20060;-60
2022/07/21 03:18:25;;;;;;;38.33;27.40;;;;;;;;;;5074659;28;20040;-61
2022/07/21 03:20:54;;;;;;;45.03;28.55;;;;;;;;;;5075772;28;20186;-60
2022/07/21 03:23:21;;;;;;;41.10;26.70;;;;;;;;;;5075092;28;20040;-61
2022/07/21 03:25:48;;;;;;;43.72;27.25;;;;;;;;;;5061872;28;20109;-60
2022/07/21 03:28:16;;;;;;;41.50;25.42;;;;;;;;;;5076322;28;20453;-61
2022/07/21 03:30:44;;;;;;;36.17;25.25;;;;;;;;;;5079489;28;20455;-61
2022/07/21 03:33:11;;;;;;;49.97;28.95;;;;;;;;;;5075046;28;20103;-61
2022/07/21 03:35:38;;;;;;;42.28;26.65;;;;;;;;;;5080332;28;20048;-61
2022/07/21 03:38:07;;;;;;;37.95;25.52;;;;;;;;;;5073131;28;20045;-61
2022/07/21 03:40:36;;;;;;;37.08;24.98;;;;;;;;;;5075584;28;20109;-61
2022/07/21 03:43:03;;;;;;;33.28;24.92;;;;;;;;;;5074611;28;20045;-61
2022/07/21 03:45:31;;;;;;;38.30;26.92;;;;;;;;;;5080211;28;20734;-61
2022/07/21 03:47:59;;;;;;;38.78;26.55;;;;;;;;;;5076314;28;20055;-61
2022/07/21 03:50:26;;;;;;;40.85;26.48;;;;;;;;;;5074707;28;20047;-61
2022/07/21 03:52:53;;;;;;;57.95;32.45;;;;;;;;;;5071975;28;20052;-61
2022/07/21 03:55:22;;;;;;;53.20;30.33;;;;;;;;;;5076601;28;20383;-61
2022/07/21 03:57:51;;;;;;;39.85;26.73;;;;;;;;;;5075997;28;20048;-61
2022/07/21 04:00:19;;;;;;;51.70;31.00;;;;;;;;;;5078994;28;20140;-61
2022/07/21 04:02:46;;;;;;;42.00;29.48;;;;;;;;;;5068462;28;20045;-61
2022/07/21 04:05:15;;;;;;;38.42;26.38;;;;;;;;;;5076460;28;20063;-61
2022/07/21 04:07:43;;;;;;;39.90;27.55;;;;;;;;;;5054899;28;20063;-62
2022/07/21 04:10:11;;;;;;;40.47;27.33;;;;;;;;;;5078253;28;20090;-62
2022/07/21 04:12:40;;;;;;;39.63;27.63;;;;;;;;;;5077520;28;20059;-62
2022/07/21 04:15:08;;;;;;;37.17;26.85;;;;;;;;;;5080266;28;20043;-62
2022/07/21 04:17:35;;;;;;;113.90;44.58;;;;;;;;;;5079166;28;20089;-62
2022/07/21 04:20:02;;;;;;;36.20;25.08;;;;;;;;;;5079154;28;20040;-62
2022/07/21 04:22:30;;;;;;;34.65;25.13;;;;;;;;;;5066263;28;20134;-62
2022/07/21 04:24:57;;;;;;;37.25;25.33;;;;;;;;;;5080712;28;20048;-63
2022/07/21 04:27:24;;;;;;;46.58;29.10;;;;;;;;;;5083276;28;20105;-62
2022/07/21 04:29:53;;;;;;;40.35;25.92;;;;;;;;;;5081426;28;20101;-62
2022/07/21 04:32:21;;;;;;;37.85;25.95;;;;;;;;;;5081503;28;20051;-62
2022/07/21 04:34:48;;;;;;;32.58;25.40;;;;;;;;;;5082123;28;20052;-62
2022/07/21 04:37:15;;;;;;;40.72;26.15;;;;;;;;;;5081933;28;20048;-62
2022/07/21 04:39:42;;;;;;;40.30;26.88;;;;;;;;;;5078597;28;20056;-62
2022/07/21 04:42:09;;;;;;;42.47;26.67;;;;;;;;;;5080838;28;20049;-62
2022/07/21 04:44:37;;;;;;;39.95;26.13;;;;;;;;;;5080259;28;20089;-62
2022/07/21 04:47:05;;;;;;;35.10;24.70;;;;;;;;;;5083110;28;20120;-62
2022/07/21 04:49:33;;;;;;;42.42;26.85;;;;;;;;;;5078507;28;20650;-63
2022/07/21 04:52:00;;;;;;;35.47;24.95;;;;;;;;;;5077301;28;20044;-63
2022/07/21 04:54:27;;;;;;;33.30;24.45;;;;;;;;;;5077518;28;20044;-62
2022/07/21 04:56:55;;;;;;;39.55;25.55;;;;;;;;;;5081988;28;20056;-63
2022/07/21 04:59:22;;;;;;;36.75;25.00;;;;;;;;;;5080528;28;20059;-62
2022/07/21 05:01:49;;;;;;;41.67;25.90;;;;;;;;;;5082570;28;20048;-62
2022/07/21 05:04:18;;;;;;;32.53;21.75;;;;;;;;;;5077073;28;20036;-63
2022/07/21 05:06:45;;;;;;;26.38;20.73;;;;;;;;;;5082607;28;20055;-62
2022/07/21 05:09:12;;;;;;;36.00;22.35;;;;;;;;;;5077828;28;20055;-62
2022/07/21 05:11:40;;;;;;;37.03;22.33;;;;;;;;;;5082680;28;20056;-63
2022/07/21 05:14:07;;;;;;;32.90;21.58;;;;;;;;;;5059762;28;20844;-62
2022/07/21 05:16:34;;;;;;;32.25;22.77;;;;;;;;;;5077317;28;20098;-63
2022/07/21 05:19:01;;;;;;;32.75;21.85;;;;;;;;;;5060525;28;20196;-63
2022/07/21 05:21:30;;;;;;;31.02;19.35;;;;;;;;;;5080803;28;20117;-62
2022/07/21 05:23:57;;;;;;;27.67;19.65;;;;;;;;;;5075064;28;20055;-62
2022/07/21 05:26:25;;;;;;;28.40;19.30;;;;;;;;;;5074895;28;20461;-62
2022/07/21 05:28:52;;;;;;;32.33;19.15;;;;;;;;;;5078285;28;20053;-63
2022/07/21 05:31:19;;;;;;;34.08;22.27;;;;;;;;;;5064961;28;20109;-63
2022/07/21 05:33:46;;;;;;;28.65;18.90;;;;;;;;;;5081752;28;20486;-62
2022/07/21 05:36:13;;;;;;;27.80;18.83;;;;;;;;;;5057227;28;20118;-63
2022/07/21 05:38:42;;;;;;;27.60;16.60;;;;;;;;;;5082833;28;20055;-62
2022/07/21 05:41:10;;;;;;;29.58;16.75;;;;;;;;;;5082534;28;20164;-62
2022/07/21 05:43:37;;;;;;;29.40;16.88;;;;;;;;;;5079060;28;20052;-63
2022/07/21 05:46:04;;;;;;;23.10;15.60;;;;;;;;;;5081843;28;20052;-62
2022/07/21 05:48:31;;;;;;;25.65;15.63;;;;;;;;;;5073700;28;20564;-62
2022/07/21 05:50:58;;;;;;;24.50;14.80;;;;;;;;;;5077056;28;20137;-62
2022/07/21 05:53:26;;;;;;;22.50;14.65;;;;;;;;;;5080200;28;20048;-63
2022/07/21 05:55:54;;;;;;;26.50;16.00;;;;;;;;;;5083556;28;20048;-62
2022/07/21 05:58:23;;;;;;;25.73;15.82;;;;;;;;;;5078368;28;20052;-63
2022/07/21 06:03:32;;;;;;;25.75;13.98;;;;;;;;;;5073187;28;20055;-63
2022/07/21 06:05:59;;;;;;;24.30;12.43;;;;;;;;;;5072087;28;20102;-63
2022/07/21 06:08:26;;;;;;;21.35;13.13;;;;;;;;;;5077472;28;20055;-63
2022/07/21 06:10:55;;;;;;;32.20;16.80;;;;;;;;;;5076689;28;20110;-63
2022/07/21 06:13:22;;;;;;;19.30;10.85;;;;;;;;;;5076306;28;20681;-63
2022/07/21 06:15:49;;;;;;;21.13;11.82;;;;;;;;;;5082378;28;20051;-63
2022/07/21 06:18:16;;;;;;;19.20;11.13;;;;;;;;;;5079689;28;20515;-62
2022/07/21 06:20:43;;;;;;;16.00;11.18;;;;;;;;;;5078130;28;20095;-63
2022/07/21 06:23:11;;;;;;;22.98;11.07;;;;;;;;;;5078501;28;20040;-63
2022/07/21 06:25:38;;;;;;;23.13;11.90;;;;;;;;;;5075582;28;20044;-63
2022/07/21 06:28:06;;;;;;;18.25;11.27;;;;;;;;;;5078654;28;20049;-63
2022/07/21 06:30:34;;;;;;;22.45;12.15;;;;;;;;;;5080364;28;20097;-63
2022/07/21 06:33:01;;;;;;;19.65;12.05;;;;;;;;;;5076992;28;20052;-62
2022/07/21 06:35:28;;;;;;;22.17;12.38;;;;;;;;;;5080829;28;20052;-62
2022/07/21 06:37:55;;;;;;;20.00;11.63;;;;;;;;;;5075594;28;20059;-62
2022/07/21 06:40:23;;;;;;;21.85;13.15;;;;;;;;;;5079543;28;20364;-63
2022/07/21 06:42:50;;;;;;;16.90;11.30;;;;;;;;;;5076321;28;20058;-62
2022/07/21 06:45:19;;;;;;;22.88;11.95;;;;;;;;;;5081996;28;20040;-63
2022/07/21 06:47:46;;;;;;;22.90;11.63;;;;;;;;;;5076067;28;20040;-63
2022/07/21 06:50:13;;;;;;;18.98;11.10;;;;;;;;;;5078099;28;20048;-63
2022/07/21 06:52:40;;;;;;;19.33;11.75;;;;;;;;;;5072632;28;20064;-62
2022/07/21 06:55:09;;;;;;;15.63;11.00;;;;;;;;;;5078652;28;20757;-63
2022/07/21 06:57:36;;;;;;;19.73;11.80;;;;;;;;;;5077105;28;20044;-63
2022/07/21 07:00:05;;;;;;;18.13;10.82;;;;;;;;;;5073432;28;20421;-63
2022/07/21 07:02:33;;;;;;;19.02;10.80;;;;;;;;;;5069883;28;20049;-63
2022/07/21 07:05:01;;;;;;;19.85;11.80;;;;;;;;;;5080816;28;20379;-63
2022/07/21 07:07:30;;;;;;;19.30;11.65;;;;;;;;;;5076768;28;20049;-63
2022/07/21 07:09:58;;;;;;;20.55;12.40;;;;;;;;;;5080283;28;20119;-63
2022/07/21 07:12:26;;;;;;;26.33;15.10;;;;;;;;;;5071110;28;20044;-62
2022/07/21 07:14:53;;;;;;;38.15;17.33;;;;;;;;;;5062863;28;20513;-63
2022/07/21 07:17:20;;;;;;;34.33;17.83;;;;;;;;;;5081946;28;20044;-62
2022/07/21 07:19:49;;;;;;;22.08;12.32;;;;;;;;;;5079795;28;20052;-62
2022/07/21 07:22:16;;;;;;;21.38;12.20;;;;;;;;;;5081114;28;20051;-62
2022/07/21 07:24:44;;;;;;;24.77;12.52;;;;;;;;;;5074755;28;20101;-63
2022/07/21 07:27:11;;;;;;;26.33;12.90;;;;;;;;;;5080276;28;20654;-63
2022/07/21 07:29:38;;;;;;;31.98;16.67;;;;;;;;;;5061795;28;20051;-63
2022/07/21 07:32:06;;;;;;;29.23;17.48;;;;;;;;;;5082361;28;20056;-62
2022/07/21 07:34:33;;;;;;;23.02;14.48;;;;;;;;;;5077076;28;20051;-63
2022/07/21 07:37:02;;;;;;;25.55;15.43;;;;;;;;;;5082229;28;20106;-63
2022/07/21 07:39:29;;;;;;;27.38;15.27;;;;;;;;;;5082660;28;20055;-63
2022/07/21 07:41:56;;;;;;;21.92;12.40;;;;;;;;;;5078565;28;20048;-63
2022/07/21 07:44:24;;;;;;;21.77;13.00;;;;;;;;;;5059654;28;20056;-63
2022/07/21 07:46:51;;;;;;;20.98;13.95;;;;;;;;;;5078319;28;20602;-62
2022/07/21 07:49:18;;;;;;;26.15;16.85;;;;;;;;;;5079909;28;20047;-62
2022/07/21 07:51:45;;;;;;;27.55;16.05;;;;;;;;;;5062840;28;20048;-63
2022/07/21 07:54:14;;;;;;;27.50;16.83;;;;;;;;;;5079099;28;20040;-63
2022/07/21 07:56:41;;;;;;;28.35;17.88;;;;;;;;;;5073466;28;20052;-63
2022/07/21 07:59:09;;;;;;;32.17;17.25;;;;;;;;;;5074329;28;20052;-63
2022/07/21 08:01:36;;;;;;;35.70;21.02;;;;;;;;;;5080221;28;20044;-63
2022/07/21 08:04:03;;;;;;;39.65;23.55;;;;;;;;;;5076230;28;20048;-63
2022/07/21 08:06:30;;;;;;;39.92;25.73;;;;;;;;;;5074947;28;20067;-63
2022/07/21 08:08:58;;;;;;;40.20;24.90;;;;;;;;;;5077738;28;20044;-62
2022/07/21 08:11:26;;;;;;;30.27;21.17;;;;;;;;;;5061121;28;20491;-62
2022/07/21 08:13:53;;;;;;;34.42;24.98;;;;;;;;;;5075238;28;20048;-63
2022/07/21 08:16:21;;;;;;;31.40;22.75;;;;;;;;;;5078080;28;20040;-62
2022/07/21 08:18:48;;;;;;;37.42;26.60;;;;;;;;;;5079900;28;20071;-63
2022/07/21 08:21:15;;;;;;;30.33;22.52;;;;;;;;;;5074136;28;20094;-63
2022/07/21 08:23:42;;;;;;;38.95;25.98;;;;;;;;;;5077598;28;20053;-63
2022/07/21 08:26:09;;;;;;;26.02;18.65;;;;;;;;;;5078838;28;20044;-63
2022/07/21 08:28:38;;;;;;;30.00;20.48;;;;;;;;;;5080334;28;20052;-62
2022/07/21 08:31:05;;;;;;;35.47;24.02;;;;;;;;;;5077200;28;20570;-63
2022/07/21 08:33:33;;;;;;;21.90;16.60;;;;;;;;;;5079587;28;20406;-63
2022/07/21 08:36:00;;;;;;;29.35;19.27;;;;;;;;;;5075598;28;20442;-63
2022/07/21 08:38:27;;;;;;;27.02;17.77;;;;;;;;;;5079077;28;20047;-63
2022/07/21 08:40:54;;;;;;;33.00;22.10;;;;;;;;;;5078359;28;20056;-63
2022/07/21 08:43:22;;;;;;;27.58;19.85;;;;;;;;;;5079427;28;20055;-63
2022/07/21 08:45:51;;;;;;;32.10;22.98;;;;;;;;;;5075243;28;20044;-63
2022/07/21 08:48:21;;;;;;;31.75;18.90;;;;;;;;;;5076718;28;20105;-63
2022/07/21 08:50:49;;;;;;;26.33;18.05;;;;;;;;;;5078360;28;20608;-63
2022/07/21 08:53:16;;;;;;;26.73;18.52;;;;;;;;;;5060442;28;20457;-62
2022/07/21 08:55:43;;;;;;;37.40;19.20;;;;;;;;;;5077511;28;20042;-62
2022/07/21 08:58:11;;;;;;;43.75;22.75;;;;;;;;;;5061531;28;20059;-61
2022/07/21 09:00:40;;;;;;;243.57;42.38;;;;;;;;;;5078670;28;20906;-60
2022/07/21 09:03:15;;;;;;;119.05;30.60;;;;;;;;;;5083040;28;20115;-61
2022/07/21 09:05:43;;;;;;;203.68;53.83;;;;;;;;;;5059604;28;20062;-61
2022/07/21 09:08:10;;;;;;;99.65;33.03;;;;;;;;;;5059029;28;20060;-61
2022/07/21 09:10:37;;;;;;;144.80;46.33;;;;;;;;;;5059589;28;20056;-61
2022/07/21 09:13:06;;;;;;;163.95;52.20;;;;;;;;;;5064084;28;20059;-61
2022/07/21 09:15:34;;;;;;;330.25;78.30;;;;;;;;;;5059982;28;20040;-62
2022/07/21 09:18:06;;;;;;;213.32;63.55;;;;;;;;;;5050802;28;20057;-62
2022/07/21 09:20:35;;;;;;;137.13;51.77;;;;;;;;;;5054984;28;20138;-62
2022/07/21 09:23:03;;;;;;;259.00;70.50;;;;;;;;;;5058904;28;20131;-63
2022/07/21 09:25:37;;;;;;;638.50;107.30;;;;;;;;;;5057175;28;20132;-63
2022/07/21 09:28:08;;;;;;;247.80;76.13;;;;;;;;;;5057117;28;20041;-63
2022/07/21 09:30:48;;;;;;;139.63;58.67;;;;;;;;;;5054655;28;20060;-63
2022/07/21 09:33:22;;;;;;;380.30;87.18;;;;;;;;;;5059479;28;20132;-62
2022/07/21 09:35:56;;;;;;;617.33;108.72;;;;;;;;;;5058290;28;20041;-62
2022/07/21 09:38:24;;;;;;;191.93;64.22;;;;;;;;;;5057941;28;20056;-62
2022/07/21 09:40:51;;;;;;;639.97;120.97;;;;;;;;;;5058787;28;20137;-62
2022/07/21 09:43:31;;;;;;;353.70;78.00;;;;;;;;;;5062804;28;20048;-61
2022/07/21 09:46:01;;;;;;;718.33;124.03;;;;;;;;;;5059271;28;20045;-62
2022/07/21 09:48:35;;;;;;;363.15;86.38;;;;;;;;;;5062534;28;20444;-62
2022/07/21 09:51:22;;;;;;;179.02;59.25;;;;;;;;;;5059290;28;20102;-62
2022/07/21 09:53:50;;;;;;;127.25;51.65;;;;;;;;;;5060264;28;20078;-62
2022/07/21 09:56:18;;;;;;;143.70;57.13;;;;;;;;;;5057718;28;20636;-62
2022/07/21 09:58:47;;;;;;;233.65;72.60;;;;;;;;;;5058360;28;20103;-62
2022/07/21 10:01:14;;;;;;;76.32;39.17;;;;;;;;;;5062050;28;20044;-62
2022/07/21 10:03:44;;;;;;;96.78;45.55;;;;;;;;;;5056609;28;20553;-62
2022/07/21 10:06:11;;;;;;;310.58;81.78;;;;;;;;;;5071629;28;20078;-62
2022/07/21 10:08:40;;;;;;;189.63;63.35;;;;;;;;;;5077682;28;20056;-62
2022/07/21 10:11:09;;;;;;;105.70;49.38;;;;;;;;;;5082715;28;20101;-62
2022/07/21 10:13:36;;;;;;;71.13;33.67;;;;;;;;;;5080728;28;20052;-62
2022/07/21 10:16:04;;;;;;;157.00;56.85;;;;;;;;;;5079149;28;20117;-63
2022/07/21 10:18:34;;;;;;;445.20;97.95;;;;;;;;;;5076698;28;20056;-63
2022/07/21 10:21:06;;;;;;;100.95;48.22;;;;;;;;;;5081630;28;20141;-63
2022/07/21 10:23:36;;;;;;;949.95;173.45;;;;;;;;;;5082061;28;20055;-64
2022/07/21 10:26:05;;;;;;;257.90;63.95;;;;;;;;;;5080181;28;20098;-64
2022/07/21 10:28:33;;;;;;;118.00;46.75;;;;;;;;;;5082516;28;20052;-64
2022/07/21 10:31:00;;;;;;;425.33;87.72;;;;;;;;;;5078621;28;20052;-64
2022/07/21 10:33:42;;;;;;;118.53;43.10;;;;;;;;;;5079646;28;20495;-64
2022/07/21 10:36:10;;;;;;;165.10;57.00;;;;;;;;;;5074665;28;20036;-64
2022/07/21 10:38:38;;;;;;;438.85;92.55;;;;;;;;;;5072682;28;20067;-64
2022/07/21 10:41:07;;;;;;;30.48;18.45;;;;;;;;;;5081091;28;20052;-64
2022/07/21 10:43:39;;;;;;;36.55;18.88;;;;;;;;;;5077106;28;20144;-64
2022/07/21 10:46:26;;;;;;;34.10;19.43;;;;;;;;;;5060081;28;20097;-64
2022/07/21 10:48:53;;;;;;;53.22;29.08;;;;;;;;;;5072585;28;20985;-63
2022/07/21 10:51:21;;;;;;;37.92;22.95;;;;;;;;;;5073266;28;20417;-64
2022/07/21 10:54:08;;;;;;;386.45;78.45;;;;;;;;;;5069954;28;20044;-64
2022/07/21 10:56:36;;;;;;;196.95;58.22;;;;;;;;;;5078153;28;20051;-64
2022/07/21 10:59:03;;;;;;;75.55;36.83;;;;;;;;;;5080211;28;20506;-63
2022/07/21 11:01:32;;;;;;;61.30;33.15;;;;;;;;;;5080278;28;20058;-63
2022/07/21 11:04:09;;;;;;;226.38;57.67;;;;;;;;;;5077226;28;20053;-63
2022/07/21 11:06:38;;;;;;;48.90;30.42;;;;;;;;;;5058225;28;20145;-64
2022/07/21 11:09:10;;;;;;;90.68;36.03;;;;;;;;;;5078279;28;20150;-63
2022/07/21 11:11:40;;;;;;;397.92;85.57;;;;;;;;;;5075122;28;20071;-64
2022/07/21 11:14:10;;;;;;;379.00;81.20;;;;;;;;;;5075371;28;20044;-64
2022/07/21 11:17:11;;;;;;;103.32;43.50;;;;;;;;;;5073746;28;20056;-64
2022/07/21 11:19:40;;;;;;;491.70;116.30;;;;;;;;;;5055207;28;20048;-64
2022/07/21 11:22:08;;;;;;;138.57;54.13;;;;;;;;;;5075367;28;20048;-64
2022/07/21 11:24:35;;;;;;;408.67;84.68;;;;;;;;;;5078650;28;20048;-64
2022/07/21 11:27:05;;;;;;;93.60;35.45;;;;;;;;;;5058071;28;20060;-64
2022/07/21 11:29:33;;;;;;;149.77;49.92;;;;;;;;;;5079526;28;20044;-64
2022/07/21 11:32:02;;;;;;;468.23;97.47;;;;;;;;;;5060526;28;20097;-64
2022/07/21 11:34:38;;;;;;;34.17;18.92;;;;;;;;;;5078447;28;20091;-64
2022/07/21 11:37:05;;;;;;;311.45;65.60;;;;;;;;;;5076735;28;20515;-64
2022/07/21 11:39:33;;;;;;;66.15;23.55;;;;;;;;;;5070753;28;20056;-64
2022/07/21 11:42:04;;;;;;;225.18;50.35;;;;;;;;;;5076375;28;20047;-64
2022/07/21 11:44:32;;;;;;;275.67;66.05;;;;;;;;;;5072323;28;20125;-64
2022/07/21 11:46:59;;;;;;;24.08;15.43;;;;;;;;;;5078093;28;20048;-64
2022/07/21 11:49:27;;;;;;;24.13;14.90;;;;;;;;;;5076701;28;20056;-64
2022/07/21 11:51:56;;;;;;;33.50;21.27;;;;;;;;;;5072223;28;20059;-64
2022/07/21 11:54:24;;;;;;;100.82;32.00;;;;;;;;;;5072479;28;20140;-64
2022/07/21 11:56:51;;;;;;;134.73;39.53;;;;;;;;;;5070395;28;20441;-64
2022/07/21 11:59:20;;;;;;;65.55;26.02;;;;;;;;;;5079263;28;20051;-64
2022/07/21 12:01:54;;;;;;;74.90;22.42;;;;;;;;;;5075860;28;20495;-64
2022/07/21 12:04:28;;;;;;;61.22;20.02;;;;;;;;;;5078139;28;20055;-64
2022/07/21 12:06:55;;;;;;;374.15;85.05;;;;;;;;;;5075671;28;20059;-64
2022/07/21 12:09:22;;;;;;;111.38;36.03;;;;;;;;;;5081057;28;20052;-64
2022/07/21 12:11:50;;;;;;;23.13;16.27;;;;;;;;;;5071644;28;20090;-64
2022/07/21 12:14:17;;;;;;;47.88;22.33;;;;;;;;;;5075023;28;20109;-64
2022/07/21 12:16:53;;;;;;;43.88;23.02;;;;;;;;;;5071180;28;20125;-64
2022/07/21 12:19:21;;;;;;;39.83;25.02;;;;;;;;;;5075770;28;20052;-64
2022/07/21 12:21:49;;;;;;;162.40;52.50;;;;;;;;;;5070828;28;20110;-64
2022/07/21 12:24:17;;;;;;;24.15;16.48;;;;;;;;;;5077043;28;20056;-64
2022/07/21 12:26:44;;;;;;;14.13;9.73;;;;;;;;;;5077109;28;20482;-65
2022/07/21 12:29:11;;;;;;;21.73;14.25;;;;;;;;;;5060303;28;20056;-64
2022/07/21 12:31:39;;;;;;;16.20;9.73;;;;;;;;;;5078247;28;20059;-64
2022/07/21 12:34:15;;;;;;;30.67;15.63;;;;;;;;;;5056273;28;20051;-64
2022/07/21 12:36:43;;;;;;;16.70;11.95;;;;;;;;;;5079953;28;20601;-64
2022/07/21 12:42:06;;;;;;;34.17;17.38;;;;;;;;;;5078352;28;20511;-64
2022/07/21 12:44:34;;;;;;;8.85;7.03;;;;;;;;;;5082621;28;20048;-64
2022/07/21 12:47:14;;;;;;;11.23;7.30;;;;;;;;;;5063986;28;20048;-64
2022/07/21 12:50:02;;;;;;;11.45;7.95;;;;;;;;;;5078594;28;20159;-64
2022/07/21 12:52:30;;;;;;;11.20;7.35;;;;;;;;;;5077147;28;20083;-64
2022/07/21 12:54:58;;;;;;;9.82;6.82;;;;;;;;;;5079776;28;20129;-64
2022/07/21 12:57:27;;;;;;;8.80;7.43;;;;;;;;;;5077689;28;20051;-64
2022/07/21 12:59:55;;;;;;;9.73;6.20;;;;;;;;;;5064484;28;20113;-63
2022/07/21 13:02:22;;;;;;;10.38;6.90;;;;;;;;;;5076516;28;20059;-64
2022/07/21 13:04:49;;;;;;;10.15;7.05;;;;;;;;;;5059885;28;20060;-64
2022/07/21 13:07:18;;;;;;;9.52;6.05;;;;;;;;;;5080537;28;20102;-64
2022/07/21 13:09:45;;;;;;;10.07;5.97;;;;;;;;;;5080319;28;20056;-64
2022/07/21 13:12:13;;;;;;;12.27;6.70;;;;;;;;;;5081071;28;20123;-63
2022/07/21 13:14:40;;;;;;;14.15;8.30;;;;;;;;;;5081938;28;20063;-64
2022/07/21 13:17:08;;;;;;;10.63;7.25;;;;;;;;;;5078234;28;20052;-68
2022/07/21 13:19:36;;;;;;;12.63;6.82;;;;;;;;;;5077800;28;20056;-67
2022/07/21 13:22:04;;;;;;;11.27;6.47;;;;;;;;;;5057469;28;20407;-66
2022/07/21 13:24:32;;;;;;;12.75;7.00;;;;;;;;;;5074073;28;20051;-63
2022/07/21 13:27:00;;;;;;;9.45;7.63;;;;;;;;;;5072643;28;20052;-65
2022/07/21 13:29:27;;;;;;;18.70;10.70;;;;;;;;;;5063620;28;20101;-67
2022/07/21 13:31:54;;;;;;;11.27;8.40;;;;;;;;;;5070841;28;20049;-65
2022/07/21 13:34:21;;;;;;;15.40;8.93;;;;;;;;;;5078752;28;20047;-63
2022/07/21 13:36:49;;;;;;;10.23;7.28;;;;;;;;;;5077759;28;20127;-63
2022/07/21 13:39:16;;;;;;;12.88;8.18;;;;;;;;;;5078290;28;20123;-64
2022/07/21 13:41:45;;;;;;;12.02;7.75;;;;;;;;;;5055724;28;20121;-64
2022/07/21 13:44:12;;;;;;;16.45;8.57;;;;;;;;;;5059518;28;20109;-63
2022/07/21 13:46:39;;;;;;;14.63;9.43;;;;;;;;;;5077858;28;20048;-63
2022/07/21 13:49:06;;;;;;;13.48;8.32;;;;;;;;;;5080516;28;20060;-63
2022/07/21 13:51:34;;;;;;;9.93;7.18;;;;;;;;;;5083451;28;20055;-63
2022/07/21 13:54:01;;;;;;;11.13;7.38;;;;;;;;;;5078079;28;20075;-63
2022/07/21 13:56:28;;;;;;;11.13;6.55;;;;;;;;;;5081622;28;20040;-63
2022/07/21 13:58:57;;;;;;;11.13;7.18;;;;;;;;;;5077747;28;20048;-63
2022/07/21 14:01:24;;;;;;;13.77;7.47;;;;;;;;;;5083529;28;20097;-63
2022/07/21 14:03:52;;;;;;;9.98;7.50;;;;;;;;;;5079312;28;20048;-63
2022/07/21 14:06:19;;;;;;;13.18;8.35;;;;;;;;;;5065174;28;20063;-63
2022/07/21 14:08:46;;;;;;;12.52;8.75;;;;;;;;;;5077297;28;20051;-63
2022/07/21 14:11:14;;;;;;;15.23;9.52;;;;;;;;;;5078351;28;20052;-63
2022/07/21 14:13:42;;;;;;;16.42;10.23;;;;;;;;;;5077410;28;20082;-63
2022/07/21 14:16:10;;;;;;;20.92;12.80;;;;;;;;;;5074942;28;20052;-62
2022/07/21 14:18:38;;;;;;;23.10;12.77;;;;;;;;;;5081348;28;20516;-63
2022/07/21 14:21:05;;;;;;;23.35;11.65;;;;;;;;;;5078694;28;20045;-63
2022/07/21 14:23:32;;;;;;;18.05;6.05;;;;;;;;;;5077689;28;20043;-63
2022/07/21 14:26:00;;;;;;;14.27;4.47;;;;;;;;;;5080724;28;20103;-63
2022/07/21 14:28:27;;;;;;;17.15;3.90;;;;;;;;;;5078420;28;20698;-62
2022/07/21 14:30:55;;;;;;;13.93;3.88;;;;;;;;;;5077969;28;20566;-62